sensor_id;sensor_type;location;lat;lon;timestamp;pressure;altitude;pressure_sealevel;temperature;humidity
12101;BME280;6113;42.678;23.334;2022-08-19T00:00:16;94535.31;;;25.98;53.87
12101;BME280;6113;42.678;23.334;2022-08-19T00:02:45;94528.56;;;26.01;53.71
12101;BME280;6113;42.678;23.334;2022-08-19T00:05:13;94540.50;;;26.01;54.11
12101;BME280;6113;42.678;23.334;2022-08-19T00:07:41;94530.84;;;25.95;55.10
12101;BME280;6113;42.678;23.334;2022-08-19T00:10:10;94543.28;;;26.01;55.78
12101;BME280;6113;42.678;23.334;2022-08-19T00:12:38;94541.81;;;25.93;56.68
12101;BME280;6113;42.678;23.334;2022-08-19T00:15:07;94514.91;;;25.65;56.90
12101;BME280;6113;42.678;23.334;2022-08-19T00:17:38;94539.09;;;25.78;57.12
12101;BME280;6113;42.678;23.334;2022-08-19T00:20:09;94544.81;;;25.72;57.25
12101;BME280;6113;42.678;23.334;2022-08-19T00:22:36;94548.03;;;25.54;57.65
12101;BME280;6113;42.678;23.334;2022-08-19T00:25:03;94554.53;;;25.64;57.22
12101;BME280;6113;42.678;23.334;2022-08-19T00:27:30;94558.09;;;25.57;57.31
12101;BME280;6113;42.678;23.334;2022-08-19T00:29:57;94553.28;;;25.50;57.99
12101;BME280;6113;42.678;23.334;2022-08-19T00:32:25;94553.28;;;25.43;58.72
12101;BME280;6113;42.678;23.334;2022-08-19T00:34:52;94554.22;;;25.38;59.17
12101;BME280;6113;42.678;23.334;2022-08-19T00:37:21;94543.06;;;25.38;59.06
12101;BME280;6113;42.678;23.334;2022-08-19T00:39:49;94549.41;;;25.31;59.07
12101;BME280;6113;42.678;23.334;2022-08-19T00:42:16;94545.69;;;25.28;59.33
12101;BME280;6113;42.678;23.334;2022-08-19T00:44:44;94542.16;;;25.28;59.20
12101;BME280;6113;42.678;23.334;2022-08-19T00:47:11;94537.53;;;25.23;59.54
12101;BME280;6113;42.678;23.334;2022-08-19T00:49:41;94551.66;;;25.17;60.28
12101;BME280;6113;42.678;23.334;2022-08-19T00:52:13;94540.13;;;25.13;60.29
12101;BME280;6113;42.678;23.334;2022-08-19T00:54:43;94523.22;;;24.96;60.08
12101;BME280;6113;42.678;23.334;2022-08-19T00:57:15;94542.91;;;25.06;60.41
12101;BME280;6113;42.678;23.334;2022-08-19T00:59:46;94541.22;;;25.03;60.73
12101;BME280;6113;42.678;23.334;2022-08-19T01:02:15;94551.81;;;24.97;61.15
12101;BME280;6113;42.678;23.334;2022-08-19T01:04:42;94542.91;;;24.91;61.61
12101;BME280;6113;42.678;23.334;2022-08-19T01:07:09;94543.81;;;24.93;61.47
12101;BME280;6113;42.678;23.334;2022-08-19T01:09:35;94543.28;;;24.87;61.68
12101;BME280;6113;42.678;23.334;2022-08-19T01:12:04;94525.81;;;24.72;61.55
12101;BME280;6113;42.678;23.334;2022-08-19T01:14:31;94540.66;;;24.82;61.32
12101;BME280;6113;42.678;23.334;2022-08-19T01:16:59;94536.94;;;24.72;61.49
12101;BME280;6113;42.678;23.334;2022-08-19T01:19:29;94544.75;;;24.66;62.12
12101;BME280;6113;42.678;23.334;2022-08-19T01:22:02;94536.19;;;24.64;62.35
12101;BME280;6113;42.678;23.334;2022-08-19T01:24:31;94544.34;;;24.62;62.59
12101;BME280;6113;42.678;23.334;2022-08-19T01:26:58;94537.34;;;24.61;62.66
12101;BME280;6113;42.678;23.334;2022-08-19T01:29:25;94455.00;;;24.00;62.70
12101;BME280;6113;42.678;23.334;2022-08-19T01:31:52;94546.03;;;24.50;62.74
12101;BME280;6113;42.678;23.334;2022-08-19T01:34:19;94526.84;;;24.39;62.44
12101;BME280;6113;42.678;23.334;2022-08-19T01:36:47;94530.97;;;24.38;63.08
12101;BME280;6113;42.678;23.334;2022-08-19T01:39:17;94542.09;;;24.38;63.49
12101;BME280;6113;42.678;23.334;2022-08-19T01:41:46;94537.63;;;24.35;63.09
12101;BME280;6113;42.678;23.334;2022-08-19T01:44:13;94542.09;;;24.38;62.14
12101;BME280;6113;42.678;23.334;2022-08-19T01:46:40;94537.63;;;24.35;62.65
12101;BME280;6113;42.678;23.334;2022-08-19T01:49:08;94543.72;;;24.26;63.58
12101;BME280;6113;42.678;23.334;2022-08-19T01:51:35;94539.84;;;24.29;63.24
12101;BME280;6113;42.678;23.334;2022-08-19T01:54:03;94539.44;;;24.25;63.44
12101;BME280;6113;42.678;23.334;2022-08-19T01:56:30;94540.56;;;24.22;63.54
12101;BME280;6113;42.678;23.334;2022-08-19T01:59:00;94456.91;;;23.63;63.60
12101;BME280;6113;42.678;23.334;2022-08-19T02:01:28;94549.63;;;24.15;64.27
12101;BME280;6113;42.678;23.334;2022-08-19T02:03:57;94548.72;;;24.20;64.30
12101;BME280;6113;42.678;23.334;2022-08-19T02:06:26;94549.63;;;24.15;64.65
12101;BME280;6113;42.678;23.334;2022-08-19T02:08:53;94529.94;;;23.98;65.17
12101;BME280;6113;42.678;23.334;2022-08-19T02:11:22;94551.09;;;24.09;65.45
12101;BME280;6113;42.678;23.334;2022-08-19T02:13:52;94542.56;;;24.07;65.35
12101;BME280;6113;42.678;23.334;2022-08-19T02:16:20;94550.69;;;24.05;65.56
12101;BME280;6113;42.678;23.334;2022-08-19T02:18:48;94545.28;;;23.99;65.21
12101;BME280;6113;42.678;23.334;2022-08-19T02:21:15;94520.41;;;23.86;64.87
12101;BME280;6113;42.678;23.334;2022-08-19T02:23:43;94546.78;;;24.00;64.97
12101;BME280;6113;42.678;23.334;2022-08-19T02:26:10;94545.28;;;23.92;65.31
12101;BME280;6113;42.678;23.334;2022-08-19T02:28:38;94544.16;;;23.87;65.30
12101;BME280;6113;42.678;23.334;2022-08-19T02:31:08;94538.03;;;23.82;65.50
12101;BME280;6113;42.678;23.334;2022-08-19T02:33:37;94460.28;;;23.26;66.16
12101;BME280;6113;42.678;23.334;2022-08-19T02:36:05;94550.44;;;23.81;66.55
12101;BME280;6113;42.678;23.334;2022-08-19T02:38:32;94546.38;;;23.82;66.50
12101;BME280;6113;42.678;23.334;2022-08-19T02:41:02;94542.09;;;23.81;66.35
12101;BME280;6113;42.678;23.334;2022-08-19T02:43:32;94542.19;;;23.68;66.14
12101;BME280;6113;42.678;23.334;2022-08-19T02:46:01;94547.06;;;23.75;66.04
12101;BME280;6113;42.678;23.334;2022-08-19T02:48:29;94543.31;;;23.72;66.09
12101;BME280;6113;42.678;23.334;2022-08-19T02:50:59;94549.09;;;23.74;66.08
12101;BME280;6113;42.678;23.334;2022-08-19T02:53:27;94540.31;;;23.63;65.83
12101;BME280;6113;42.678;23.334;2022-08-19T02:55:54;94554.44;;;23.72;65.67
12101;BME280;6113;42.678;23.334;2022-08-19T02:58:22;94560.91;;;23.67;65.96
12101;BME280;6113;42.678;23.334;2022-08-19T03:00:50;94563.69;;;23.67;65.61
12101;BME280;6113;42.678;23.334;2022-08-19T03:03:18;94544.88;;;23.53;65.63
12101;BME280;6113;42.678;23.334;2022-08-19T03:05:46;94547.28;;;23.49;65.88
12101;BME280;6113;42.678;23.334;2022-08-19T03:08:14;94557.31;;;23.52;65.91
12101;BME280;6113;42.678;23.334;2022-08-19T03:10:43;94565.44;;;23.50;66.21
12101;BME280;6113;42.678;23.334;2022-08-19T03:13:14;94555.66;;;23.56;65.58
12101;BME280;6113;42.678;23.334;2022-08-19T03:15:42;94537.06;;;23.44;65.91
12101;BME280;6113;42.678;23.334;2022-08-19T03:18:10;94551.94;;;23.54;65.35
12101;BME280;6113;42.678;23.334;2022-08-19T03:20:41;94545.84;;;23.55;65.18
12101;BME280;6113;42.678;23.334;2022-08-19T03:23:08;94546.19;;;23.52;65.70
12101;BME280;6113;42.678;23.334;2022-08-19T03:25:38;94544.28;;;23.47;66.41
12101;BME280;6113;42.678;23.334;2022-08-19T03:28:09;94555.28;;;23.52;66.05
12101;BME280;6113;42.678;23.334;2022-08-19T03:30:36;94551.03;;;23.59;66.28
12101;BME280;6113;42.678;23.334;2022-08-19T03:33:02;94546.78;;;23.65;66.37
12101;BME280;6113;42.678;23.334;2022-08-19T03:35:29;94532.47;;;23.54;66.48
12101;BME280;6113;42.678;23.334;2022-08-19T03:37:58;94550.28;;;23.58;66.60
12101;BME280;6113;42.678;23.334;2022-08-19T03:40:24;94544.69;;;23.51;66.80
12101;BME280;6113;42.678;23.334;2022-08-19T03:42:53;94546.84;;;23.37;67.40
12101;BME280;6113;42.678;23.334;2022-08-19T03:45:19;94563.91;;;23.41;67.60
12101;BME280;6113;42.678;23.334;2022-08-19T03:47:46;94567.22;;;23.40;67.84
12101;BME280;6113;42.678;23.334;2022-08-19T03:50:13;94571.31;;;23.39;68.40
12101;BME280;6113;42.678;23.334;2022-08-19T03:52:40;94551.16;;;23.18;68.62
12101;BME280;6113;42.678;23.334;2022-08-19T03:55:08;94579.59;;;23.31;68.97
12101;BME280;6113;42.678;23.334;2022-08-19T03:57:35;94580.31;;;23.24;69.52
12101;BME280;6113;42.678;23.334;2022-08-19T04:00:04;94580.81;;;23.23;69.31
12101;BME280;6113;42.678;23.334;2022-08-19T04:02:32;94578.25;;;23.25;69.64
12101;BME280;6113;42.678;23.334;2022-08-19T04:04:59;94587.13;;;23.23;69.82
12101;BME280;6113;42.678;23.334;2022-08-19T04:07:26;94586.72;;;23.19;70.05
12101;BME280;6113;42.678;23.334;2022-08-19T04:09:53;94590.84;;;23.26;69.85
12101;BME280;6113;42.678;23.334;2022-08-19T04:12:20;94590.16;;;23.33;69.69
12101;BME280;6113;42.678;23.334;2022-08-19T04:14:46;94565.25;;;23.20;69.48
12101;BME280;6113;42.678;23.334;2022-08-19T04:17:15;94592.84;;;23.46;69.10
12101;BME280;6113;42.678;23.334;2022-08-19T04:19:41;94574.28;;;23.41;69.18
12101;BME280;6113;42.678;23.334;2022-08-19T04:22:09;94591.47;;;23.60;69.47
12101;BME280;6113;42.678;23.334;2022-08-19T04:24:36;94575.44;;;23.45;69.45
12101;BME280;6113;42.678;23.334;2022-08-19T04:27:04;94598.53;;;23.68;69.03
12101;BME280;6113;42.678;23.334;2022-08-19T04:29:32;94598.19;;;23.72;68.78
12101;BME280;6113;42.678;23.334;2022-08-19T04:31:59;94585.56;;;23.71;68.82
12101;BME280;6113;42.678;23.334;2022-08-19T04:34:29;94602.72;;;23.82;68.46
12101;BME280;6113;42.678;23.334;2022-08-19T04:36:57;94603.28;;;23.88;68.61
12101;BME280;6113;42.678;23.334;2022-08-19T04:39:26;94600.56;;;23.95;69.00
12101;BME280;6113;42.678;23.334;2022-08-19T04:42:14;94585.34;;;23.96;68.80
12101;BME280;6113;42.678;23.334;2022-08-19T04:44:58;94573.84;;;23.92;68.69
12101;BME280;6113;42.678;23.334;2022-08-19T04:47:26;94594.34;;;24.17;68.86
12101;BME280;6113;42.678;23.334;2022-08-19T04:49:54;94595.09;;;24.25;68.76
12101;BME280;6113;42.678;23.334;2022-08-19T04:52:21;94591.59;;;24.32;68.57
12101;BME280;6113;42.678;23.334;2022-08-19T04:54:48;94606.28;;;24.40;68.55
12101;BME280;6113;42.678;23.334;2022-08-19T04:57:15;94600.22;;;24.49;68.57
12101;BME280;6113;42.678;23.334;2022-08-19T04:59:41;94595.78;;;24.54;68.43
12101;BME280;6113;42.678;23.334;2022-08-19T05:02:09;94581.13;;;24.53;68.18
12101;BME280;6113;42.678;23.334;2022-08-19T05:04:36;94609.75;;;24.76;68.03
12101;BME280;6113;42.678;23.334;2022-08-19T05:07:06;94603.44;;;24.83;68.33
12101;BME280;6113;42.678;23.334;2022-08-19T05:09:34;94557.72;;;24.56;66.52
12101;BME280;6113;42.678;23.334;2022-08-19T05:12:01;94601.97;;;24.97;66.36
12101;BME280;6113;42.678;23.334;2022-08-19T05:14:28;94598.63;;;25.06;65.65
12101;BME280;6113;42.678;23.334;2022-08-19T05:16:55;94601.06;;;25.17;65.34
12101;BME280;6113;42.678;23.334;2022-08-19T05:19:22;94516.91;;;24.73;65.01
12101;BME280;6113;42.678;23.334;2022-08-19T05:22:03;94605.31;;;25.40;65.06
12101;BME280;6113;42.678;23.334;2022-08-19T05:24:48;94607.53;;;25.56;64.84
12101;BME280;6113;42.678;23.334;2022-08-19T05:27:15;94612.53;;;25.73;64.09
12101;BME280;6113;42.678;23.334;2022-08-19T05:29:42;94606.03;;;25.85;63.66
12101;BME280;6113;42.678;23.334;2022-08-19T05:32:09;94608.59;;;25.98;63.57
12101;BME280;6113;42.678;23.334;2022-08-19T05:34:36;94579.56;;;26.01;63.27
12101;BME280;6113;42.678;23.334;2022-08-19T05:37:05;94613.88;;;26.26;62.78
12101;BME280;6113;42.678;23.334;2022-08-19T05:39:34;94606.78;;;26.40;62.53
12101;BME280;6113;42.678;23.334;2022-08-19T05:42:05;94584.22;;;26.38;61.90
12101;BME280;6113;42.678;23.334;2022-08-19T05:44:35;94612.00;;;26.68;61.07
12101;BME280;6113;42.678;23.334;2022-08-19T05:47:05;94604.34;;;26.76;60.83
12101;BME280;6113;42.678;23.334;2022-08-19T05:49:34;94607.38;;;26.95;60.24
12101;BME280;6113;42.678;23.334;2022-08-19T05:52:02;94611.06;;;27.05;59.57
12101;BME280;6113;42.678;23.334;2022-08-19T05:54:30;94596.03;;;27.17;59.15
12101;BME280;6113;42.678;23.334;2022-08-19T05:56:57;94528.16;;;26.75;58.03
12101;BME280;6113;42.678;23.334;2022-08-19T05:59:25;94594.78;;;27.35;57.41
12101;BME280;6113;42.678;23.334;2022-08-19T06:01:52;94604.75;;;27.45;57.38
12101;BME280;6113;42.678;23.334;2022-08-19T06:04:21;94603.38;;;27.54;57.44
12101;BME280;6113;42.678;23.334;2022-08-19T06:06:52;94583.47;;;27.50;56.67
12101;BME280;6113;42.678;23.334;2022-08-19T06:09:20;94605.66;;;27.72;56.21
12101;BME280;6113;42.678;23.334;2022-08-19T06:11:49;94610.75;;;27.83;55.50
12101;BME280;6113;42.678;23.334;2022-08-19T06:14:21;94605.75;;;27.82;55.32
12101;BME280;6113;42.678;23.334;2022-08-19T06:16:50;94617.03;;;27.91;55.92
12101;BME280;6113;42.678;23.334;2022-08-19T06:19:19;94615.81;;;28.01;56.17
12101;BME280;6113;42.678;23.334;2022-08-19T06:21:48;94607.47;;;28.11;56.29
12101;BME280;6113;42.678;23.334;2022-08-19T06:24:17;94603.63;;;28.23;55.16
12101;BME280;6113;42.678;23.334;2022-08-19T06:26:46;94530.44;;;27.76;53.94
12101;BME280;6113;42.678;23.334;2022-08-19T06:29:16;94601.53;;;28.41;53.12
12101;BME280;6113;42.678;23.334;2022-08-19T06:31:44;94599.81;;;28.45;52.70
12101;BME280;6113;42.678;23.334;2022-08-19T06:34:13;94612.88;;;28.60;52.70
12101;BME280;6113;42.678;23.334;2022-08-19T06:36:42;94619.44;;;28.72;51.64
12101;BME280;6113;42.678;23.334;2022-08-19T06:39:11;94613.34;;;28.82;51.64
12101;BME280;6113;42.678;23.334;2022-08-19T06:41:39;94600.53;;;28.89;51.64
12101;BME280;6113;42.678;23.334;2022-08-19T06:44:07;94616.72;;;29.07;51.80
12101;BME280;6113;42.678;23.334;2022-08-19T06:46:35;94611.16;;;29.17;50.84
12101;BME280;6113;42.678;23.334;2022-08-19T06:49:02;94612.66;;;29.27;50.11
12101;BME280;6113;42.678;23.334;2022-08-19T06:51:31;94610.66;;;29.37;49.75
12101;BME280;6113;42.678;23.334;2022-08-19T06:53:58;94609.38;;;29.48;49.71
12101;BME280;6113;42.678;23.334;2022-08-19T06:56:28;94615.88;;;29.50;49.49
12101;BME280;6113;42.678;23.334;2022-08-19T06:58:59;94611.03;;;29.60;49.51
12101;BME280;6113;42.678;23.334;2022-08-19T07:01:26;94615.50;;;29.72;49.15
12101;BME280;6113;42.678;23.334;2022-08-19T07:03:53;94602.78;;;29.81;48.63
12101;BME280;6113;42.678;23.334;2022-08-19T07:06:20;94610.19;;;29.86;48.03
12101;BME280;6113;42.678;23.334;2022-08-19T07:08:48;94618.47;;;29.84;48.46
12101;BME280;6113;42.678;23.334;2022-08-19T07:11:17;94622.50;;;30.00;48.08
12101;BME280;6113;42.678;23.334;2022-08-19T07:13:44;94619.25;;;30.13;47.72
12101;BME280;6113;42.678;23.334;2022-08-19T07:16:14;94622.38;;;30.26;47.44
12101;BME280;6113;42.678;23.334;2022-08-19T07:18:41;94607.56;;;30.26;47.08
12101;BME280;6113;42.678;23.334;2022-08-19T07:21:12;94614.25;;;30.49;46.83
12101;BME280;6113;42.678;23.334;2022-08-19T07:23:39;94616.59;;;30.62;46.49
12101;BME280;6113;42.678;23.334;2022-08-19T07:26:08;94610.53;;;30.65;46.24
12101;BME280;6113;42.678;23.334;2022-08-19T07:28:35;94610.34;;;30.82;45.88
12101;BME280;6113;42.678;23.334;2022-08-19T07:31:05;94609.72;;;30.93;45.59
12101;BME280;6113;42.678;23.334;2022-08-19T07:33:32;94604.53;;;30.99;45.40
12101;BME280;6113;42.678;23.334;2022-08-19T07:36:03;94616.94;;;31.15;44.75
12101;BME280;6113;42.678;23.334;2022-08-19T07:38:30;94611.16;;;31.23;44.68
12101;BME280;6113;42.678;23.334;2022-08-19T07:40:57;94607.09;;;31.35;44.80
12101;BME280;6113;42.678;23.334;2022-08-19T07:43:25;94606.28;;;31.44;44.33
12101;BME280;6113;42.678;23.334;2022-08-19T07:45:52;94541.13;;;31.17;44.06
12101;BME280;6113;42.678;23.334;2022-08-19T07:48:21;94614.50;;;31.70;43.65
12101;BME280;6113;42.678;23.334;2022-08-19T07:50:51;94610.28;;;31.81;43.61
12101;BME280;6113;42.678;23.334;2022-08-19T07:53:18;94607.88;;;31.87;43.06
12101;BME280;6113;42.678;23.334;2022-08-19T07:55:45;94565.84;;;31.49;43.57
12101;BME280;6113;42.678;23.334;2022-08-19T07:58:22;94615.00;;;31.88;43.79
12101;BME280;6113;42.678;23.334;2022-08-19T08:00:51;94536.78;;;31.56;43.93
12101;BME280;6113;42.678;23.334;2022-08-19T08:03:20;94605.75;;;32.17;43.92
12101;BME280;6113;42.678;23.334;2022-08-19T08:06:07;94607.06;;;32.37;43.09
12101;BME280;6113;42.678;23.334;2022-08-19T08:08:52;94601.63;;;32.51;42.16
12101;BME280;6113;42.678;23.334;2022-08-19T08:11:39;94608.13;;;32.53;41.88
12101;BME280;6113;42.678;23.334;2022-08-19T08:14:07;94608.94;;;32.65;41.53
12101;BME280;6113;42.678;23.334;2022-08-19T08:16:37;94609.22;;;32.81;41.61
12101;BME280;6113;42.678;23.334;2022-08-19T08:19:05;94589.38;;;32.90;40.63
12101;BME280;6113;42.678;23.334;2022-08-19T08:21:32;94587.31;;;33.02;40.35
12101;BME280;6113;42.678;23.334;2022-08-19T08:23:59;94578.59;;;32.87;39.71
12101;BME280;6113;42.678;23.334;2022-08-19T08:26:26;94579.88;;;32.42;39.93
12101;BME280;6113;42.678;23.334;2022-08-19T08:28:53;94592.53;;;32.73;40.13
12101;BME280;6113;42.678;23.334;2022-08-19T08:31:21;94592.94;;;32.90;39.81
12101;BME280;6113;42.678;23.334;2022-08-19T08:33:50;94591.84;;;32.95;39.19
12101;BME280;6113;42.678;23.334;2022-08-19T08:36:17;94589.19;;;33.09;39.07
12101;BME280;6113;42.678;23.334;2022-08-19T08:38:44;94598.78;;;33.27;38.66
12101;BME280;6113;42.678;23.334;2022-08-19T08:41:18;94584.69;;;33.38;38.24
12101;BME280;6113;42.678;23.334;2022-08-19T08:43:48;94584.81;;;33.40;37.06
12101;BME280;6113;42.678;23.334;2022-08-19T08:46:22;94590.09;;;33.46;37.86
12101;BME280;6113;42.678;23.334;2022-08-19T08:48:56;94554.72;;;33.45;37.26
12101;BME280;6113;42.678;23.334;2022-08-19T08:51:28;94581.34;;;33.76;37.21
12101;BME280;6113;42.678;23.334;2022-08-19T08:53:59;94581.59;;;33.91;36.53
12101;BME280;6113;42.678;23.334;2022-08-19T08:56:26;94572.97;;;34.01;35.84
12101;BME280;6113;42.678;23.334;2022-08-19T08:58:58;94553.47;;;33.93;35.79
12101;BME280;6113;42.678;23.334;2022-08-19T09:01:27;94577.13;;;34.11;35.88
12101;BME280;6113;42.678;23.334;2022-08-19T09:03:55;94564.69;;;34.28;35.00
12101;BME280;6113;42.678;23.334;2022-08-19T09:06:29;94565.09;;;34.47;34.74
12101;BME280;6113;42.678;23.334;2022-08-19T09:09:03;94551.28;;;34.53;34.66
12101;BME280;6113;42.678;23.334;2022-08-19T09:11:48;94560.78;;;34.57;34.23
12101;BME280;6113;42.678;23.334;2022-08-19T09:14:28;94560.47;;;34.65;34.47
12101;BME280;6113;42.678;23.334;2022-08-19T09:16:58;94558.22;;;34.75;34.11
12101;BME280;6113;42.678;23.334;2022-08-19T09:19:27;94544.53;;;34.58;32.55
12101;BME280;6113;42.678;23.334;2022-08-19T09:21:54;94543.03;;;34.32;32.64
12101;BME280;6113;42.678;23.334;2022-08-19T09:24:20;94549.75;;;34.39;32.46
12101;BME280;6113;42.678;23.334;2022-08-19T09:26:47;94552.16;;;34.55;32.72
12101;BME280;6113;42.678;23.334;2022-08-19T09:29:14;94554.66;;;34.74;32.66
12101;BME280;6113;42.678;23.334;2022-08-19T09:31:41;94547.56;;;34.87;32.21
12101;BME280;6113;42.678;23.334;2022-08-19T09:34:08;94547.78;;;34.91;31.91
12101;BME280;6113;42.678;23.334;2022-08-19T09:36:36;94546.69;;;34.84;31.63
12101;BME280;6113;42.678;23.334;2022-08-19T09:39:05;94457.38;;;34.43;31.23
12101;BME280;6113;42.678;23.334;2022-08-19T09:41:32;94534.25;;;35.14;31.18
12101;BME280;6113;42.678;23.334;2022-08-19T09:43:59;94534.47;;;35.32;29.53
12101;BME280;6113;42.678;23.334;2022-08-19T09:46:28;94508.53;;;35.24;30.19
12101;BME280;6113;42.678;23.334;2022-08-19T09:48:58;94503.09;;;35.28;29.81
12101;BME280;6113;42.678;23.334;2022-08-19T09:51:26;94538.78;;;35.59;29.79
12101;BME280;6113;42.678;23.334;2022-08-19T09:54:00;94536.59;;;35.71;28.67
12101;BME280;6113;42.678;23.334;2022-08-19T09:56:28;94520.00;;;35.52;28.61
12101;BME280;6113;42.678;23.334;2022-08-19T09:58:57;94533.47;;;35.65;28.09
12101;BME280;6113;42.678;23.334;2022-08-19T10:01:29;94531.53;;;35.70;28.53
12101;BME280;6113;42.678;23.334;2022-08-19T10:03:57;94524.63;;;35.73;28.14
12101;BME280;6113;42.678;23.334;2022-08-19T10:06:26;94530.50;;;35.77;28.62
12101;BME280;6113;42.678;23.334;2022-08-19T10:08:56;94507.84;;;35.63;28.13
12101;BME280;6113;42.678;23.334;2022-08-19T10:11:23;94519.69;;;35.46;28.18
12101;BME280;6113;42.678;23.334;2022-08-19T10:13:50;94509.22;;;35.62;28.58
12101;BME280;6113;42.678;23.334;2022-08-19T10:16:18;94516.41;;;35.79;28.67
12101;BME280;6113;42.678;23.334;2022-08-19T10:18:47;94509.69;;;35.86;28.40
12101;BME280;6113;42.678;23.334;2022-08-19T10:21:16;94437.75;;;35.50;28.44
12101;BME280;6113;42.678;23.334;2022-08-19T10:23:46;94491.53;;;35.91;27.94
12101;BME280;6113;42.678;23.334;2022-08-19T10:26:17;94514.84;;;36.03;28.51
12101;BME280;6113;42.678;23.334;2022-08-19T10:28:45;94502.97;;;36.06;28.27
12101;BME280;6113;42.678;23.334;2022-08-19T10:31:15;94500.53;;;36.14;28.02
12101;BME280;6113;42.678;23.334;2022-08-19T10:33:43;94500.03;;;36.04;28.28
12101;BME280;6113;42.678;23.334;2022-08-19T10:36:12;94493.31;;;35.84;28.63
12101;BME280;6113;42.678;23.334;2022-08-19T10:38:41;94498.47;;;35.74;28.49
12101;BME280;6113;42.678;23.334;2022-08-19T10:41:10;94491.66;;;35.79;28.38
12101;BME280;6113;42.678;23.334;2022-08-19T10:43:38;94489.13;;;35.85;28.75
12101;BME280;6113;42.678;23.334;2022-08-19T10:46:05;94477.25;;;35.89;28.66
12101;BME280;6113;42.678;23.334;2022-08-19T10:48:33;94485.66;;;35.87;28.81
12101;BME280;6113;42.678;23.334;2022-08-19T10:51:00;94485.78;;;35.75;28.46
12101;BME280;6113;42.678;23.334;2022-08-19T10:53:44;94470.22;;;36.03;28.77
12101;BME280;6113;42.678;23.334;2022-08-19T10:56:11;94485.25;;;36.21;28.34
12101;BME280;6113;42.678;23.334;2022-08-19T10:58:58;94459.75;;;36.21;28.40
12101;BME280;6113;42.678;23.334;2022-08-19T11:01:25;94476.59;;;36.46;28.20
12101;BME280;6113;42.678;23.334;2022-08-19T11:03:52;94480.47;;;36.39;27.20
12101;BME280;6113;42.678;23.334;2022-08-19T11:06:19;94477.63;;;36.39;27.63
12101;BME280;6113;42.678;23.334;2022-08-19T11:08:46;94474.50;;;36.46;27.76
12101;BME280;6113;42.678;23.334;2022-08-19T11:11:13;94455.84;;;36.28;27.93
12101;BME280;6113;42.678;23.334;2022-08-19T11:13:40;94466.53;;;36.43;27.71
12101;BME280;6113;42.678;23.334;2022-08-19T11:16:16;94473.88;;;36.34;27.51
12101;BME280;6113;42.678;23.334;2022-08-19T11:18:45;94472.00;;;36.25;27.44
12101;BME280;6113;42.678;23.334;2022-08-19T11:21:15;94477.06;;;35.85;27.99
12101;BME280;6113;42.678;23.334;2022-08-19T11:23:45;94477.06;;;35.85;27.21
12101;BME280;6113;42.678;23.334;2022-08-19T11:26:12;94470.00;;;35.99;27.65
12101;BME280;6113;42.678;23.334;2022-08-19T11:28:40;94469.56;;;35.91;28.43
12101;BME280;6113;42.678;23.334;2022-08-19T11:31:11;94453.78;;;35.73;27.80
12101;BME280;6113;42.678;23.334;2022-08-19T11:33:38;94435.38;;;35.87;28.18
12101;BME280;6113;42.678;23.334;2022-08-19T11:36:06;94454.34;;;35.98;28.27
12101;BME280;6113;42.678;23.334;2022-08-19T11:38:32;94452.69;;;35.93;27.61
12101;BME280;6113;42.678;23.334;2022-08-19T11:41:03;94446.28;;;35.93;28.08
12101;BME280;6113;42.678;23.334;2022-08-19T11:43:31;94442.16;;;36.09;27.96
12101;BME280;6113;42.678;23.334;2022-08-19T11:45:58;94424.47;;;35.82;28.25
12101;BME280;6113;42.678;23.334;2022-08-19T11:48:27;94447.94;;;36.11;28.34
12101;BME280;6113;42.678;23.334;2022-08-19T11:50:53;94445.88;;;36.27;28.10
12101;BME280;6113;42.678;23.334;2022-08-19T11:53:21;94442.22;;;36.40;27.46
12101;BME280;6113;42.678;23.334;2022-08-19T11:55:49;94435.41;;;36.45;26.63
12101;BME280;6113;42.678;23.334;2022-08-19T11:58:17;94419.16;;;36.32;27.18
12101;BME280;6113;42.678;23.334;2022-08-19T12:00:44;94434.13;;;36.48;27.45
12101;BME280;6113;42.678;23.334;2022-08-19T12:03:12;94438.72;;;36.26;27.07
12101;BME280;6113;42.678;23.334;2022-08-19T12:05:41;94432.22;;;36.23;27.44
12101;BME280;6113;42.678;23.334;2022-08-19T12:08:08;94433.50;;;35.78;26.94
12101;BME280;6113;42.678;23.334;2022-08-19T12:10:35;94415.63;;;35.89;27.89
12101;BME280;6113;42.678;23.334;2022-08-19T12:13:02;94422.34;;;36.24;28.03
12101;BME280;6113;42.678;23.334;2022-08-19T12:15:29;94408.31;;;36.42;26.75
12101;BME280;6113;42.678;23.334;2022-08-19T12:17:57;94413.38;;;36.59;26.51
12101;BME280;6113;42.678;23.334;2022-08-19T12:20:24;94412.91;;;36.64;26.11
12101;BME280;6113;42.678;23.334;2022-08-19T12:22:52;94405.22;;;36.67;27.07
12101;BME280;6113;42.678;23.334;2022-08-19T12:25:20;94396.63;;;36.65;27.71
12101;BME280;6113;42.678;23.334;2022-08-19T12:27:47;94397.66;;;36.27;26.91
12101;BME280;6113;42.678;23.334;2022-08-19T12:30:15;94400.00;;;36.17;27.76
12101;BME280;6113;42.678;23.334;2022-08-19T12:32:42;94398.00;;;36.19;27.59
12101;BME280;6113;42.678;23.334;2022-08-19T12:35:09;94391.59;;;36.19;28.12
12101;BME280;6113;42.678;23.334;2022-08-19T12:37:37;94389.59;;;36.37;27.90
12101;BME280;6113;42.678;23.334;2022-08-19T12:40:06;94391.22;;;36.11;26.71
12101;BME280;6113;42.678;23.334;2022-08-19T12:42:33;94390.66;;;36.15;27.84
12101;BME280;6113;42.678;23.334;2022-08-19T12:45:00;94367.22;;;36.14;27.93
12101;BME280;6113;42.678;23.334;2022-08-19T12:47:27;94384.84;;;36.26;27.49
12101;BME280;6113;42.678;23.334;2022-08-19T12:49:54;94389.59;;;36.37;27.08
12101;BME280;6113;42.678;23.334;2022-08-19T12:52:23;94375.91;;;36.47;27.37
12101;BME280;6113;42.678;23.334;2022-08-19T12:54:51;94381.13;;;36.08;27.11
12101;BME280;6113;42.678;23.334;2022-08-19T12:57:19;94377.97;;;36.16;27.62
12101;BME280;6113;42.678;23.334;2022-08-19T12:59:46;94374.47;;;36.17;27.88
12101;BME280;6113;42.678;23.334;2022-08-19T13:02:13;94376.72;;;36.05;27.57
12101;BME280;6113;42.678;23.334;2022-08-19T13:04:40;94368.97;;;36.06;27.97
12101;BME280;6113;42.678;23.334;2022-08-19T13:07:07;94368.97;;;36.21;28.26